Time;durP1;ratioP1;P1;durP2;ratioP2;P2;SDS_P1;SDS_P2;PMS_P1;PMS_P2;Temp;Humidity;BMP_temperature;BMP_pressure;BME280_temperature;BME280_humidity;BME280_pressure;Samples;Min_cycle;Max_cycle;Signal;HPM_P1;HPM_P2
2022/01/12 05:13:04;;;;;;;11.02;6.68;;;-1.00;99.90;;;;;;4874942;29;20444;-76
2022/01/12 05:15:34;;;;;;;13.60;7.65;;;-1.10;99.90;;;;;;4911168;29;20048;-78
2022/01/12 05:18:02;;;;;;;11.57;6.90;;;-1.10;99.90;;;;;;4916444;29;20058;-75
2022/01/12 05:20:29;;;;;;;12.15;7.40;;;-1.10;99.90;;;;;;4923923;29;20131;-76
2022/01/12 05:22:56;;;;;;;12.38;7.20;;;-1.20;99.90;;;;;;4921895;29;20111;-75
2022/01/12 05:25:25;;;;;;;11.60;7.20;;;-1.10;99.90;;;;;;4926451;29;20529;-76
2022/01/12 05:27:53;;;;;;;13.68;7.05;;;-1.10;99.90;;;;;;4917536;29;20601;-75
2022/01/12 05:30:21;;;;;;;13.13;7.07;;;-1.20;99.90;;;;;;4918467;29;20055;-74
2022/01/12 05:32:48;;;;;;;14.82;7.55;;;-1.30;99.90;;;;;;4918235;29;20130;-75
2022/01/12 05:35:17;;;;;;;14.75;7.38;;;-1.30;99.90;;;;;;4914909;29;20066;-75
2022/01/12 05:37:45;;;;;;;12.05;7.03;;;-1.30;99.90;;;;;;4916281;29;20052;-75
2022/01/12 05:40:16;;;;;;;13.30;7.32;;;-1.30;99.90;;;;;;4914619;29;20414;-75
2022/01/12 05:42:44;;;;;;;14.00;7.10;;;-1.30;99.90;;;;;;4915118;29;20052;-75
2022/01/12 05:45:12;;;;;;;11.88;7.05;;;-1.30;99.90;;;;;;4915047;29;20125;-75
2022/01/12 05:50:25;;;;;;;11.63;7.25;;;-1.30;99.90;;;;;;4914789;29;20075;-76
2022/01/12 05:52:53;;;;;;;13.27;8.05;;;-1.20;99.90;;;;;;4917265;29;20131;-75
2022/01/12 05:55:20;;;;;;;15.45;8.80;;;-1.20;99.90;;;;;;4917216;29;20163;-75
2022/01/12 05:57:49;;;;;;;16.13;7.97;;;-1.20;99.90;;;;;;4916436;29;20116;-75
2022/01/12 06:00:19;;;;;;;14.50;7.55;;;-1.20;99.90;;;;;;4915705;29;20087;-74
2022/01/12 06:02:46;;;;;;;12.60;7.53;;;-1.30;99.90;;;;;;4915807;29;20054;-76
2022/01/12 06:05:16;;;;;;;11.00;6.85;;;-1.30;99.90;;;;;;4915900;29;20565;-74
2022/01/12 06:07:43;;;;;;;13.10;7.32;;;-1.40;99.90;;;;;;4917421;29;20139;-75
2022/01/12 06:10:11;;;;;;;12.88;7.28;;;-1.40;99.90;;;;;;4917800;29;20060;-75
2022/01/12 06:12:38;;;;;;;13.02;7.07;;;-1.40;99.90;;;;;;4917785;29;20139;-75
2022/01/12 06:15:07;;;;;;;13.43;7.40;;;-1.40;99.90;;;;;;4917590;29;20048;-75
2022/01/12 06:17:35;;;;;;;12.38;7.05;;;-1.40;99.90;;;;;;4917539;29;20557;-76
2022/01/12 06:20:04;;;;;;;14.02;7.53;;;-1.40;99.90;;;;;;4918225;29;20405;-74
2022/01/12 06:22:31;;;;;;;11.98;7.30;;;-1.30;99.90;;;;;;4917697;29;20137;-75
2022/01/12 06:24:59;;;;;;;12.57;7.75;;;-1.40;99.90;;;;;;4917566;29;20607;-76
2022/01/12 06:27:29;;;;;;;13.15;7.22;;;-1.40;99.90;;;;;;4918068;29;20055;-74
2022/01/12 06:30:14;;;;;;;13.23;7.53;;;-1.40;99.90;;;;;;4917934;29;20111;-74
2022/01/12 06:32:43;;;;;;;11.63;7.00;;;-1.50;99.90;;;;;;4917843;29;20147;-74
2022/01/12 06:35:10;;;;;;;12.90;7.70;;;-1.50;99.90;;;;;;4917743;29;20139;-76
2022/01/12 06:37:37;;;;;;;13.52;7.63;;;-1.50;99.90;;;;;;4917662;29;20139;-75
2022/01/12 06:40:05;;;;;;;13.25;8.30;;;-1.50;99.90;;;;;;4917515;29;20463;-76
2022/01/12 06:42:32;;;;;;;11.85;6.85;;;-1.60;99.90;;;;;;4917871;29;20469;-75
2022/01/12 06:45:00;;;;;;;13.73;7.20;;;-1.70;99.90;;;;;;4917938;29;20055;-76
2022/01/12 06:47:27;;;;;;;13.73;7.28;;;-1.70;99.90;;;;;;4918106;29;20126;-74
2022/01/12 06:49:55;;;;;;;13.38;7.38;;;-1.70;99.90;;;;;;4917827;29;20119;-75
2022/01/12 06:52:22;;;;;;;13.38;7.68;;;-1.70;99.90;;;;;;4918392;29;20593;-74
2022/01/12 06:54:49;;;;;;;13.48;7.57;;;-1.70;99.90;;;;;;4921198;29;20135;-75
2022/01/12 06:57:17;;;;;;;14.60;8.00;;;-1.70;99.90;;;;;;4921122;29;20051;-74
2022/01/12 06:59:44;;;;;;;12.80;7.60;;;-1.60;99.90;;;;;;4920877;29;20060;-74
2022/01/12 07:02:11;;;;;;;12.85;7.55;;;-1.60;99.90;;;;;;4920839;29;20052;-74
2022/01/12 07:04:38;;;;;;;14.80;7.78;;;-1.60;99.90;;;;;;4920840;29;20405;-77
2022/01/12 07:07:07;;;;;;;12.50;7.00;;;-1.60;99.90;;;;;;4920803;29;20150;-75
2022/01/12 07:09:34;;;;;;;11.73;6.70;;;-1.60;99.90;;;;;;4920350;29;20062;-76
2022/01/12 07:12:01;;;;;;;14.13;7.45;;;-1.70;99.90;;;;;;4921219;29;20134;-76
2022/01/12 07:14:28;;;;;;;13.40;7.75;;;-1.60;99.90;;;;;;4920517;29;20084;-75
2022/01/12 07:16:55;;;;;;;12.77;7.03;;;-1.70;99.90;;;;;;4920728;29;20127;-75
2022/01/12 07:19:22;;;;;;;11.60;7.05;;;-1.60;99.90;;;;;;4921393;29;20091;-75
2022/01/12 07:21:49;;;;;;;13.40;7.18;;;-1.60;99.90;;;;;;4920958;29;20131;-75
2022/01/12 07:24:17;;;;;;;12.88;7.63;;;-1.60;99.90;;;;;;4920792;29;20135;-75
2022/01/12 07:26:46;;;;;;;13.30;7.22;;;-1.60;99.90;;;;;;4921832;29;20147;-75
2022/01/12 07:29:13;;;;;;;12.77;6.93;;;-1.60;99.90;;;;;;4920845;29;20052;-75
2022/01/12 07:31:40;;;;;;;13.43;7.75;;;-1.60;99.90;;;;;;4921052;29;20387;-75
2022/01/12 07:34:07;;;;;;;13.63;7.68;;;-1.70;99.90;;;;;;4920624;29;20052;-75
2022/01/12 07:36:34;;;;;;;14.68;8.10;;;-1.70;99.90;;;;;;4920356;29;20471;-75
2022/01/12 07:39:01;;;;;;;13.50;7.97;;;-1.80;99.90;;;;;;4920456;29;20052;-76
2022/01/12 07:41:30;;;;;;;12.55;7.50;;;-1.80;99.90;;;;;;4921806;29;20086;-78
2022/01/12 07:43:57;;;;;;;14.45;7.90;;;-1.80;99.90;;;;;;4923969;29;20051;-75
2022/01/12 07:46:24;;;;;;;12.60;7.53;;;-1.80;99.90;;;;;;4925968;29;20079;-74
2022/01/12 07:48:51;;;;;;;15.95;8.90;;;-1.80;99.90;;;;;;4924571;29;20127;-74
2022/01/12 07:51:19;;;;;;;11.32;7.40;;;-1.80;99.90;;;;;;4920630;29;20056;-75
2022/01/12 07:53:46;;;;;;;15.27;8.57;;;-1.80;99.90;;;;;;4921197;29;20498;-75
2022/01/12 07:56:13;;;;;;;13.13;7.75;;;-1.80;99.90;;;;;;4920998;29;20135;-75
2022/01/12 07:58:42;;;;;;;16.02;8.50;;;-1.70;99.90;;;;;;4920713;29;20143;-74
2022/01/12 08:01:09;;;;;;;14.73;8.15;;;-1.70;99.90;;;;;;4919066;29;20112;-75
2022/01/12 08:03:36;;;;;;;16.95;9.18;;;-1.80;99.90;;;;;;4921003;29;20139;-75
2022/01/12 08:06:04;;;;;;;16.77;8.88;;;-1.90;99.90;;;;;;4922609;29;20134;-74
2022/01/12 08:08:33;;;;;;;16.08;9.25;;;-2.00;99.90;;;;;;4921332;29;20140;-76
2022/01/12 08:11:00;;;;;;;15.35;9.50;;;-2.00;99.90;;;;;;4920766;29;20074;-74
2022/01/12 08:13:27;;;;;;;17.50;9.13;;;-2.00;99.90;;;;;;4920577;29;20565;-75
2022/01/12 08:15:55;;;;;;;17.63;10.52;;;-2.00;99.90;;;;;;4920381;29;20094;-76
2022/01/12 08:18:24;;;;;;;17.98;9.73;;;-1.90;99.90;;;;;;4919459;29;20048;-75
2022/01/12 08:20:51;;;;;;;17.15;9.02;;;-1.90;99.90;;;;;;4919330;29;20071;-75
2022/01/12 08:23:18;;;;;;;15.98;9.00;;;-1.80;99.90;;;;;;4919338;29;20095;-74
2022/01/12 08:25:46;;;;;;;15.27;9.07;;;-1.70;99.90;;;;;;4919250;29;20056;-75
2022/01/12 08:28:13;;;;;;;17.95;9.77;;;-1.70;99.90;;;;;;4919330;29;20061;-75
2022/01/12 08:30:40;;;;;;;17.85;9.63;;;-1.60;99.90;;;;;;4919504;29;20139;-75
2022/01/12 08:33:11;;;;;;;19.77;11.05;;;-1.50;99.90;;;;;;4920580;29;20059;-76
2022/01/12 08:35:38;;;;;;;17.58;10.52;;;-1.50;99.90;;;;;;4920983;29;20417;-77
2022/01/12 08:38:05;;;;;;;18.20;10.50;;;-1.40;99.90;;;;;;4920318;29;20593;-75
2022/01/12 08:40:32;;;;;;;19.15;10.38;;;-1.40;99.90;;;;;;4920044;29;20056;-75
2022/01/12 08:42:59;;;;;;;16.92;10.05;;;-1.40;99.90;;;;;;4919464;29;20402;-74
2022/01/12 08:45:26;;;;;;;18.13;10.38;;;-1.40;99.90;;;;;;4920210;29;20098;-75
2022/01/12 08:47:53;;;;;;;17.00;10.13;;;-1.30;99.90;;;;;;4920552;29;20143;-74
2022/01/12 08:50:22;;;;;;;17.80;10.30;;;-1.30;99.90;;;;;;4919969;29;20107;-74
2022/01/12 08:52:50;;;;;;;16.80;9.80;;;-1.30;99.90;;;;;;4919328;29;20134;-75
2022/01/12 08:55:21;;;;;;;17.58;10.77;;;-1.20;99.90;;;;;;4919340;29;20044;-75
2022/01/12 08:57:50;;;;;;;16.42;10.30;;;-1.20;99.90;;;;;;4919243;29;20131;-75
2022/01/12 09:00:18;;;;;;;18.40;9.90;;;-1.10;99.90;;;;;;4918818;29;20059;-75
2022/01/12 09:02:45;;;;;;;16.80;10.38;;;-1.10;99.90;;;;;;4918698;29;20063;-75
2022/01/12 09:05:14;;;;;;;16.50;10.02;;;-1.00;99.90;;;;;;4918357;29;20486;-75
2022/01/12 09:07:43;;;;;;;16.42;9.95;;;-1.00;99.90;;;;;;4918852;29;20052;-75
2022/01/12 09:10:11;;;;;;;17.00;10.27;;;-0.90;99.90;;;;;;4918742;29;20052;-77
2022/01/12 09:12:39;;;;;;;16.80;10.27;;;-0.80;99.90;;;;;;4919285;29;20048;-77
2022/01/12 09:15:07;;;;;;;17.95;9.68;;;-0.70;99.90;;;;;;4918629;29;20052;-76
2022/01/12 09:17:35;;;;;;;17.92;10.15;;;-0.60;99.90;;;;;;4918621;29;20139;-77
2022/01/12 09:20:05;;;;;;;18.27;10.60;;;-0.50;99.90;;;;;;4918471;29;20098;-75
2022/01/12 09:22:32;;;;;;;18.95;10.23;;;-0.50;99.90;;;;;;4919704;29;20450;-75
2022/01/12 09:25:00;;;;;;;17.10;10.55;;;-0.40;99.90;;;;;;4923107;29;20467;-75
2022/01/12 09:27:28;;;;;;;16.45;10.35;;;-0.30;99.90;;;;;;4918349;29;20079;-76
2022/01/12 09:29:55;;;;;;;16.92;10.60;;;-0.20;99.90;;;;;;4919311;29;20055;-76
2022/01/12 09:32:22;;;;;;;20.08;10.80;;;-0.10;99.90;;;;;;4919460;29;20048;-75
2022/01/12 09:34:49;;;;;;;16.63;10.20;;;-0.10;99.90;;;;;;4922424;29;20126;-76
2022/01/12 09:37:16;;;;;;;19.17;11.20;;;0.00;99.90;;;;;;4937281;29;20048;-76
2022/01/12 09:39:43;;;;;;;20.08;10.75;;;0.00;99.90;;;;;;4926511;29;20490;-75
2022/01/12 09:42:11;;;;;;;18.73;10.65;;;0.00;99.90;;;;;;4917695;29;20052;-76
2022/01/12 09:44:44;;;;;;;17.45;9.65;;;0.10;99.90;;;;;;4917758;29;20135;-75
2022/01/12 09:47:11;;;;;;;17.25;10.50;;;0.10;99.90;;;;;;4917756;29;20521;-75
2022/01/12 09:49:39;;;;;;;17.52;10.05;;;0.20;99.90;;;;;;4917747;29;20135;-77
2022/01/12 09:52:07;;;;;;;16.30;10.38;;;0.20;99.90;;;;;;4929698;29;20142;-76
2022/01/12 09:54:34;;;;;;;16.77;10.43;;;0.30;99.90;;;;;;4936301;29;20048;-75
2022/01/12 09:57:01;;;;;;;17.17;9.95;;;0.30;99.90;;;;;;4936394;29;20051;-75
2022/01/12 09:59:29;;;;;;;15.65;10.32;;;0.40;99.90;;;;;;4936321;29;20589;-76
2022/01/12 10:01:57;;;;;;;15.13;10.07;;;0.50;99.90;;;;;;4935839;29;20071;-75
2022/01/12 10:04:26;;;;;;;17.88;10.27;;;0.50;99.90;;;;;;4917782;29;20139;-77
2022/01/12 10:06:57;;;;;;;16.70;10.07;;;0.50;99.90;;;;;;4915074;29;20055;-76
2022/01/12 10:09:26;;;;;;;17.60;10.07;;;0.60;99.90;;;;;;4914684;29;20147;-75
2022/01/12 10:11:56;;;;;;;16.88;10.07;;;0.70;99.90;;;;;;4914834;29;20502;-76
2022/01/12 10:14:24;;;;;;;19.90;11.25;;;0.80;99.90;;;;;;4915013;29;20502;-77
2022/01/12 10:16:57;;;;;;;18.70;11.50;;;0.90;99.90;;;;;;4915141;29;20048;-75
2022/01/12 10:19:31;;;;;;;17.60;10.90;;;0.90;99.90;;;;;;4915378;29;20066;-77
2022/01/12 10:22:03;;;;;;;17.95;10.93;;;1.00;99.90;;;;;;4915402;29;20052;-76
2022/01/12 10:24:30;;;;;;;20.20;11.77;;;1.10;99.90;;;;;;4915186;29;20139;-77
2022/01/12 10:26:58;;;;;;;17.27;10.48;;;1.10;99.90;;;;;;4914536;29;20130;-76
2022/01/12 10:29:28;;;;;;;16.67;10.20;;;1.20;99.90;;;;;;4927907;29;20056;-77
2022/01/12 10:32:00;;;;;;;16.48;10.40;;;1.20;99.90;;;;;;4917405;29;20065;-75
2022/01/12 10:34:29;;;;;;;18.58;10.82;;;1.30;99.90;;;;;;4921619;29;20044;-75
2022/01/12 10:36:58;;;;;;;16.92;10.32;;;1.30;99.90;;;;;;4915549;29;20046;-77
2022/01/12 10:39:29;;;;;;;17.38;10.27;;;1.30;99.90;;;;;;4915246;29;20083;-78
2022/01/12 10:42:00;;;;;;;16.70;10.60;;;1.30;99.90;;;;;;4895698;29;20123;-74
2022/01/12 10:44:32;;;;;;;17.75;11.23;;;1.40;99.90;;;;;;4911196;29;20508;-77
2022/01/12 10:47:13;;;;;;;16.80;10.60;;;1.40;99.60;;;;;;4933917;29;20466;-77
2022/01/12 10:49:43;;;;;;;19.23;10.75;;;1.40;99.60;;;;;;4913421;29;20099;-76
2022/01/12 10:52:13;;;;;;;19.20;11.25;;;1.40;99.70;;;;;;4922774;29;20438;-77
2022/01/12 10:54:49;;;;;;;19.27;11.23;;;1.50;99.80;;;;;;4933834;29;20047;-77
2022/01/12 10:57:23;;;;;;;18.35;10.68;;;1.50;99.60;;;;;;4917232;29;20502;-77
2022/01/12 11:00:08;;;;;;;18.93;11.47;;;1.60;99.40;;;;;;4914641;29;20150;-75
2022/01/12 11:02:39;;;;;;;17.60;10.27;;;1.60;99.40;;;;;;4914905;29;20723;-76
2022/01/12 11:05:08;;;;;;;19.02;10.93;;;1.70;99.10;;;;;;4915191;29;20052;-75
2022/01/12 11:07:36;;;;;;;18.67;10.82;;;1.70;98.80;;;;;;4916371;29;20048;-76
2022/01/12 11:10:07;;;;;;;15.75;9.35;;;1.80;98.70;;;;;;4933362;29;20052;-76
2022/01/12 11:12:36;;;;;;;15.35;9.65;;;1.80;98.40;;;;;;4932680;29;20098;-77
2022/01/12 11:15:06;;;;;;;13.45;8.68;;;1.80;97.60;;;;;;4932990;29;20054;-79
2022/01/12 11:17:33;;;;;;;16.10;9.68;;;1.80;97.30;;;;;;4933149;29;20054;-77
2022/01/12 11:20:12;;;;;;;14.77;8.60;;;1.80;97.10;;;;;;4920280;29;20048;-76
2022/01/12 11:22:51;;;;;;;14.88;9.73;;;1.80;97.20;;;;;;4915586;29;20066;-76
2022/01/12 11:25:21;;;;;;;14.60;8.85;;;1.80;97.00;;;;;;4914127;29;20059;-76
2022/01/12 11:27:51;;;;;;;15.63;9.27;;;1.90;96.90;;;;;;4915257;29;20147;-75
2022/01/12 11:30:22;;;;;;;15.45;9.15;;;1.90;96.90;;;;;;4916518;29;20059;-75
2022/01/12 11:33:00;;;;;;;14.40;9.02;;;1.90;96.70;;;;;;4924872;29;20056;-76
2022/01/12 11:35:32;;;;;;;15.73;9.27;;;2.00;96.90;;;;;;4914518;29;20312;-75
2022/01/12 11:38:00;;;;;;;16.52;9.50;;;2.00;97.00;;;;;;4915181;29;20120;-75
2022/01/12 11:40:50;;;;;;;14.98;9.27;;;2.00;97.10;;;;;;4929636;29;20477;-78
2022/01/12 11:43:21;;;;;;;14.05;8.70;;;2.10;97.30;;;;;;4915111;29;20051;-76
2022/01/12 11:46:03;;;;;;;15.80;9.48;;;2.10;97.20;;;;;;4918086;29;20052;-74
2022/01/12 11:48:32;;;;;;;15.32;9.32;;;2.20;97.30;;;;;;4917072;29;20054;-75
2022/01/12 11:51:01;;;;;;;14.75;9.38;;;2.30;97.20;;;;;;4916223;29;20138;-75
2022/01/12 11:53:30;;;;;;;16.27;10.05;;;2.30;97.00;;;;;;4933122;29;20837;-75
2022/01/12 11:56:12;;;;;;;14.88;9.55;;;2.40;96.80;;;;;;4920925;29;20414;-73
2022/01/12 11:58:55;;;;;;;15.63;9.65;;;2.50;96.30;;;;;;4916809;29;20059;-76
2022/01/12 12:01:24;;;;;;;16.33;9.63;;;2.60;96.00;;;;;;4916940;29;20138;-75
2022/01/12 12:04:01;;;;;;;16.27;10.23;;;2.70;96.10;;;;;;4915845;29;20052;-74
2022/01/12 12:06:29;;;;;;;17.77;10.80;;;2.70;95.80;;;;;;4916267;29;20052;-74
2022/01/12 12:09:03;;;;;;;15.18;9.80;;;2.70;95.60;;;;;;4916435;29;20448;-76
2022/01/12 12:11:32;;;;;;;16.48;10.07;;;2.80;95.50;;;;;;4916352;29;20186;-74
2022/01/12 12:14:07;;;;;;;16.88;10.57;;;3.00;95.60;;;;;;4916203;29;20083;-74
2022/01/12 12:16:36;;;;;;;15.85;10.13;;;3.10;95.40;;;;;;4915901;29;20083;-74
2022/01/12 12:19:06;;;;;;;15.70;10.00;;;3.20;95.40;;;;;;4916233;29;20091;-75
2022/01/12 12:21:36;;;;;;;16.50;10.32;;;3.40;95.20;;;;;;4916195;29;20505;-75
2022/01/12 12:24:12;;;;;;;13.27;8.88;;;3.50;94.50;;;;;;4916167;29;20080;-77
2022/01/12 12:26:47;;;;;;;15.07;9.15;;;3.60;94.60;;;;;;4915616;29;20059;-75
2022/01/12 12:29:25;;;;;;;14.05;9.05;;;3.70;93.70;;;;;;4915388;29;20130;-74
2022/01/12 12:31:53;;;;;;;15.43;9.85;;;3.80;93.00;;;;;;4916075;29;20059;-74
2022/01/12 12:34:24;;;;;;;16.05;9.75;;;3.90;92.80;;;;;;4915568;29;20087;-75
2022/01/12 12:37:05;;;;;;;16.40;10.25;;;4.00;92.70;;;;;;4915877;29;20056;-75
2022/01/12 12:39:35;;;;;;;14.60;9.23;;;4.20;92.60;;;;;;4915717;29;20486;-75
2022/01/12 12:42:05;;;;;;;15.27;9.85;;;4.30;92.40;;;;;;4915633;29;20143;-75
2022/01/12 12:44:34;;;;;;;14.43;9.43;;;4.50;92.00;;;;;;4915318;29;20060;-78
2022/01/12 12:47:11;;;;;;;16.40;10.52;;;4.60;91.40;;;;;;4915528;29;20087;-74
2022/01/12 12:49:50;;;;;;;15.93;9.63;;;4.70;91.30;;;;;;4915199;29;20131;-75
2022/01/12 12:52:28;;;;;;;15.07;10.07;;;4.90;91.20;;;;;;4915819;29;20052;-76
2022/01/12 12:54:56;;;;;;;15.30;9.95;;;5.10;90.80;;;;;;4915435;29;20103;-75
2022/01/12 12:57:23;;;;;;;14.57;9.52;;;5.20;90.60;;;;;;4915146;29;20139;-75
2022/01/12 13:00:04;;;;;;;15.73;9.88;;;5.50;90.10;;;;;;4915589;29;20130;-75
2022/01/12 13:02:37;;;;;;;16.00;10.13;;;5.70;89.50;;;;;;4915176;29;20498;-75
2022/01/12 13:05:09;;;;;;;13.90;9.27;;;6.00;86.50;;;;;;4915334;29;20087;-75
2022/01/12 13:07:39;;;;;;;15.38;10.60;;;6.30;84.40;;;;;;4915508;29;20079;-74
2022/01/12 13:10:11;;;;;;;14.32;9.63;;;6.50;82.00;;;;;;4915190;29;20083;-74
2022/01/12 13:12:39;;;;;;;14.43;9.98;;;6.90;82.80;;;;;;4915300;29;20063;-74
2022/01/12 13:15:10;;;;;;;13.55;9.48;;;7.50;80.60;;;;;;4915679;29;20579;-76
2022/01/12 13:17:39;;;;;;;12.50;9.13;;;8.30;76.00;;;;;;4915993;29;20136;-74
2022/01/12 13:23:03;;;;;;;12.10;9.07;;;11.90;60.80;;;;;;4895680;29;20573;-75
2022/01/12 13:25:30;;;;;;;11.45;8.90;;;14.10;53.80;;;;;;4896187;29;20131;-75
2022/01/12 13:27:58;;;;;;;12.05;9.18;;;16.10;48.90;;;;;;4895980;29;20048;-75
2022/01/12 13:30:29;;;;;;;11.40;8.50;;;17.90;44.80;;;;;;4896297;29;20459;-76
2022/01/12 13:32:58;;;;;;;11.13;8.50;;;19.40;41.70;;;;;;4896021;29;20056;-77
2022/01/12 13:35:30;;;;;;;10.15;7.93;;;20.70;38.60;;;;;;4895559;29;20088;-76
2022/01/12 13:38:02;;;;;;;10.73;7.80;;;21.70;36.70;;;;;;4912362;29;20126;-75
2022/01/12 13:40:41;;;;;;;10.73;7.60;;;22.60;35.20;;;;;;4919420;29;20431;-74
2022/01/12 13:43:08;;;;;;;10.75;7.97;;;23.30;34.30;;;;;;4914845;29;20084;-76
2022/01/12 13:45:42;;;;;;;12.25;8.80;;;24.00;33.40;;;;;;4914637;29;20102;-74
2022/01/12 13:48:16;;;;;;;10.10;7.45;;;24.60;32.70;;;;;;4914009;29;20655;-75
2022/01/12 13:50:46;;;;;;;9.02;6.72;;;25.00;31.70;;;;;;4914535;29;20055;-74
2022/01/12 13:53:14;;;;;;;9.55;6.95;;;25.40;30.90;;;;;;4914702;29;20052;-74
2022/01/12 13:55:53;;;;;;;8.45;6.68;;;25.60;30.50;;;;;;4914356;29;20047;-76
2022/01/12 13:58:20;;;;;;;8.73;6.82;;;26.00;30.30;;;;;;4914409;29;20048;-76
2022/01/12 14:00:47;;;;;;;8.20;6.60;;;26.30;30.00;;;;;;4913929;29;20135;-76
2022/01/12 14:03:18;;;;;;;7.95;6.50;;;26.60;29.80;;;;;;4914437;29;20502;-76
2022/01/12 14:05:46;;;;;;;10.95;7.45;;;27.00;29.50;;;;;;4914714;29;20570;-76
2022/01/12 14:08:15;;;;;;;9.73;7.38;;;27.70;29.10;;;;;;4913984;29;20048;-78
2022/01/12 14:10:45;;;;;;;10.43;7.70;;;28.20;28.90;;;;;;4913930;29;20191;-77
2022/01/12 14:13:13;;;;;;;8.63;6.90;;;28.40;28.50;;;;;;4913923;29;20044;-78
2022/01/12 14:15:40;;;;;;;8.85;7.40;;;28.80;28.60;;;;;;4913921;29;20201;-75
2022/01/12 14:18:18;;;;;;;9.70;6.97;;;29.30;28.40;;;;;;4913468;29;20066;-76
2022/01/12 14:20:46;;;;;;;8.05;6.70;;;29.70;28.10;;;;;;4913785;29;20059;-78
2022/01/12 14:23:15;;;;;;;8.60;6.68;;;29.90;28.00;;;;;;4913664;29;20103;-78
2022/01/12 14:25:46;;;;;;;9.20;7.40;;;30.00;27.90;;;;;;4914049;29;20054;-78
2022/01/12 14:28:15;;;;;;;9.68;6.97;;;30.00;27.80;;;;;;4913750;29;20055;-77
2022/01/12 14:30:45;;;;;;;9.75;7.50;;;30.00;28.30;;;;;;4913582;29;20054;-79
2022/01/12 14:33:14;;;;;;;8.68;7.43;;;30.00;27.60;;;;;;4913733;29;20055;-78
2022/01/12 14:35:42;;;;;;;8.85;7.07;;;29.90;27.60;;;;;;4922406;29;20068;-75
2022/01/12 14:38:09;;;;;;;9.70;7.18;;;29.50;27.60;;;;;;4932758;29;20047;-78
2022/01/12 14:40:38;;;;;;;9.13;7.15;;;29.20;27.60;;;;;;4932410;29;20130;-77
2022/01/12 14:43:07;;;;;;;9.90;7.60;;;28.90;27.80;;;;;;4931974;29;20051;-78
2022/01/12 14:45:38;;;;;;;8.60;7.18;;;28.50;27.80;;;;;;4932776;29;20135;-78
2022/01/12 14:48:08;;;;;;;9.18;7.15;;;27.90;27.40;;;;;;4932772;29;20454;-75
2022/01/12 14:50:36;;;;;;;8.95;7.07;;;27.60;28.00;;;;;;4932571;29;20098;-78
2022/01/12 14:53:06;;;;;;;9.13;7.25;;;27.10;28.20;;;;;;4932321;29;20417;-76
2022/01/12 14:55:34;;;;;;;10.68;8.38;;;25.60;27.90;;;;;;4932280;29;20453;-76
2022/01/12 14:58:02;;;;;;;8.82;7.43;;;24.50;28.90;;;;;;4932372;29;20075;-77
2022/01/12 15:00:34;;;;;;;9.73;7.70;;;22.60;30.00;;;;;;4934731;29;20151;-74
2022/01/12 15:03:04;;;;;;;10.18;8.05;;;21.20;31.70;;;;;;4931124;29;20071;-75
2022/01/12 15:05:32;;;;;;;11.95;8.05;;;20.60;32.60;;;;;;4932203;29;20150;-78
2022/01/12 15:08:00;;;;;;;9.88;7.82;;;20.50;33.20;;;;;;4932186;29;20135;-77
2022/01/12 15:10:29;;;;;;;10.63;8.15;;;20.50;33.30;;;;;;4929826;29;20062;-76
2022/01/12 15:13:04;;;;;;;11.10;7.63;;;20.70;33.30;;;;;;4916323;29;20055;-77
2022/01/12 15:15:33;;;;;;;11.70;8.32;;;20.70;33.00;;;;;;4917098;29;20063;-78
2022/01/12 15:18:00;;;;;;;10.20;7.85;;;20.80;33.00;;;;;;4920392;29;20056;-78
2022/01/12 15:20:28;;;;;;;10.95;8.20;;;20.70;33.30;;;;;;4916819;29;20062;-78
2022/01/12 15:22:55;;;;;;;10.25;7.60;;;20.60;33.20;;;;;;4916260;29;20490;-78
2022/01/12 15:25:24;;;;;;;10.50;7.97;;;20.40;33.40;;;;;;4926857;29;20048;-76
2022/01/12 15:27:51;;;;;;;13.00;8.00;;;20.10;33.70;;;;;;4923923;29;20052;-74
2022/01/12 15:30:19;;;;;;;10.98;7.68;;;19.60;34.10;;;;;;4918494;29;20056;-77
2022/01/12 15:32:48;;;;;;;10.65;7.55;;;19.10;34.80;;;;;;4927352;29;20050;-77
2022/01/12 15:35:17;;;;;;;11.02;8.18;;;18.30;35.40;;;;;;4922439;29;20048;-76
2022/01/12 15:37:45;;;;;;;10.32;7.40;;;17.30;36.80;;;;;;4928818;29;20126;-76
2022/01/12 15:40:14;;;;;;;13.63;8.95;;;16.10;37.70;;;;;;4929732;29;20052;-76
2022/01/12 15:42:41;;;;;;;13.32;8.65;;;14.90;39.00;;;;;;4923689;29;20048;-76
2022/01/12 15:45:10;;;;;;;12.18;8.90;;;13.70;40.30;;;;;;4922357;29;20093;-75
2022/01/12 15:47:37;;;;;;;14.38;8.80;;;12.70;41.90;;;;;;4919392;29;20566;-76
2022/01/12 15:50:08;;;;;;;13.02;8.55;;;11.80;43.50;;;;;;4914712;29;20171;-76
2022/01/12 15:52:35;;;;;;;13.15;8.50;;;11.00;44.90;;;;;;4909229;29;20044;-76
2022/01/12 15:55:02;;;;;;;13.18;8.27;;;10.20;46.30;;;;;;4915848;29;20188;-76
2022/01/12 15:57:29;;;;;;;11.80;7.85;;;9.60;47.90;;;;;;4915500;29;20040;-74
2022/01/12 15:59:56;;;;;;;15.63;9.38;;;9.00;49.20;;;;;;4915494;29;20134;-74
2022/01/12 16:02:23;;;;;;;14.45;8.85;;;8.50;50.30;;;;;;4915046;29;20052;-76
2022/01/12 16:04:50;;;;;;;13.80;8.95;;;8.00;51.60;;;;;;4915523;29;20048;-75
2022/01/12 16:07:19;;;;;;;13.10;8.52;;;7.60;53.30;;;;;;4915327;29;20052;-74
2022/01/12 16:09:46;;;;;;;14.55;8.27;;;7.20;54.00;;;;;;4915287;29;20054;-74
2022/01/12 16:12:15;;;;;;;13.25;8.55;;;;;;;;;;4920933;29;20059;-74
2022/01/12 16:14:42;;;;;;;13.80;8.93;;;6.50;55.40;;;;;;4914848;29;20044;-76
2022/01/12 16:17:10;;;;;;;14.18;7.95;;;6.10;56.70;;;;;;4915429;29;20083;-78
2022/01/12 16:19:41;;;;;;;14.27;8.15;;;5.80;57.80;;;;;;4916425;29;20052;-76
2022/01/12 16:22:08;;;;;;;14.23;8.55;;;5.50;58.90;;;;;;4915798;29;20056;-78
2022/01/12 16:24:37;;;;;;;12.90;8.35;;;5.30;59.70;;;;;;4914914;29;20056;-75
2022/01/12 16:27:06;;;;;;;13.07;8.35;;;5.10;60.40;;;;;;4915469;29;20056;-75
2022/01/12 16:29:35;;;;;;;13.77;8.77;;;4.90;61.20;;;;;;4915563;29;20075;-76
2022/01/12 16:32:02;;;;;;;14.43;8.95;;;4.50;61.20;;;;;;4918201;29;20044;-76
2022/01/12 16:34:30;;;;;;;13.60;8.32;;;4.50;62.60;;;;;;4915588;29;20052;-75
2022/01/12 16:36:57;;;;;;;14.65;8.65;;;4.40;63.40;;;;;;4915356;29;20088;-75
2022/01/12 16:39:25;;;;;;;14.90;8.63;;;4.30;64.10;;;;;;4922660;29;20134;-75
2022/01/12 16:41:53;;;;;;;14.82;8.75;;;4.10;64.70;;;;;;4922544;29;20044;-77
2022/01/12 16:44:21;;;;;;;15.25;8.90;;;4.00;65.40;;;;;;4919051;29;20457;-75
2022/01/12 16:46:49;;;;;;;13.63;8.52;;;3.90;66.20;;;;;;4927164;29;20040;-75
2022/01/12 16:49:16;;;;;;;13.90;8.07;;;3.90;67.70;;;;;;4924669;29;20075;-75
2022/01/12 16:51:44;;;;;;;14.90;8.55;;;3.70;68.10;;;;;;4920078;29;20136;-76
2022/01/12 16:54:11;;;;;;;14.25;8.45;;;3.60;68.90;;;;;;4917685;29;20490;-75
2022/01/12 16:56:38;;;;;;;13.93;8.60;;;3.50;70.30;;;;;;4926375;29;20068;-77
2022/01/12 16:59:07;;;;;;;14.23;8.65;;;3.40;71.80;;;;;;4925421;29;20058;-75
2022/01/12 17:01:34;;;;;;;15.20;8.88;;;3.40;73.40;;;;;;4924239;29;20056;-76
2022/01/12 17:04:01;;;;;;;15.40;8.73;;;3.30;75.50;;;;;;4925434;29;20063;-76
2022/01/12 17:06:28;;;;;;;15.85;9.60;;;3.20;77.10;;;;;;4928738;29;20135;-76
2022/01/12 17:08:55;;;;;;;13.68;8.70;;;3.10;79.00;;;;;;4919456;29;20106;-76
2022/01/12 17:11:24;;;;;;;15.50;9.45;;;3.10;81.40;;;;;;4928556;29;20143;-75
2022/01/12 17:13:51;;;;;;;15.73;9.05;;;3.00;83.10;;;;;;4900771;29;20130;-75
2022/01/12 17:17:20;;;;;;;14.52;8.93;;;3.00;85.10;;;;;;4926203;29;20142;-76
2022/01/12 17:19:49;;;;;;;18.42;10.10;;;2.90;87.00;;;;;;4915542;29;20086;-77
2022/01/12 17:22:16;;;;;;;14.70;9.60;;;2.80;89.10;;;;;;4917624;29;20055;-76
2022/01/12 17:25:16;;;;;;;16.63;10.02;;;2.70;90.20;;;;;;4925999;29;20115;-74
2022/01/12 17:28:29;;;;;;;14.43;8.43;;;2.70;90.90;;;;;;4917431;29;20052;-76
2022/01/12 17:30:58;;;;;;;14.63;8.63;;;2.70;91.50;;;;;;4924423;29;20498;-76
2022/01/12 17:33:27;;;;;;;16.70;10.02;;;2.60;92.00;;;;;;4924740;29;20040;-74
2022/01/12 17:35:55;;;;;;;18.13;10.02;;;2.50;92.30;;;;;;4925623;29;20479;-74
2022/01/12 17:38:22;;;;;;;21.13;10.35;;;2.40;92.50;;;;;;4924584;29;20056;-75
2022/01/12 17:40:51;;;;;;;16.92;9.55;;;2.40;93.00;;;;;;4923572;29;20052;-75
2022/01/12 17:43:23;;;;;;;18.45;10.07;;;2.30;93.40;;;;;;4931608;29;20150;-75
2022/01/12 17:45:51;;;;;;;15.75;10.20;;;2.30;93.70;;;;;;4922343;29;20052;-76
2022/01/12 17:48:35;;;;;;;17.13;10.95;;;2.20;94.00;;;;;;4924443;29;20476;-75
2022/01/12 17:51:05;;;;;;;18.13;11.23;;;2.20;94.20;;;;;;4920946;29;20409;-75
2022/01/12 17:53:35;;;;;;;17.48;10.65;;;2.10;94.50;;;;;;4916594;29;20044;-75
2022/01/12 17:56:05;;;;;;;20.85;11.70;;;2.10;94.70;;;;;;4923445;29;20074;-75
2022/01/12 17:58:32;;;;;;;18.02;11.05;;;2.10;95.00;;;;;;4917941;29;20040;-78
2022/01/12 18:00:59;;;;;;;19.27;11.50;;;2.10;95.10;;;;;;4925088;29;20162;-79
2022/01/12 18:03:28;;;;;;;19.40;11.30;;;2.10;95.20;;;;;;4929874;29;20068;-74
2022/01/12 18:05:55;;;;;;;19.17;10.55;;;2.00;95.20;;;;;;4919803;29;20055;-74
2022/01/12 18:08:24;;;;;;;17.85;10.95;;;2.00;95.30;;;;;;4924107;29;20052;-79
2022/01/12 18:10:52;;;;;;;18.00;10.50;;;2.00;95.40;;;;;;4925312;29;20162;-74